Time;durP1;ratioP1;P1;durP2;ratioP2;P2;SDS_P1;SDS_P2;PMS_P1;PMS_P2;Temp;Humidity;BMP_temperature;BMP_pressure;BME280_temperature;BME280_humidity;BME280_pressure;Samples;Min_cycle;Max_cycle;Signal;HPM_P1;HPM_P2
2023/06/05 00:01:19;;;;;;;4.07;1.17;;;14.50;63.60;;;;;;4853614;29;20057;-80
2023/06/05 00:03:46;;;;;;;2.10;1.10;;;14.40;63.70;;;;;;4868576;29;20052;-80
2023/06/05 00:06:13;;;;;;;1.73;0.75;;;14.40;64.00;;;;;;4883993;29;20056;-81
2023/06/05 00:08:40;;;;;;;2.00;0.85;;;14.30;64.00;;;;;;4853255;29;20048;-81
2023/06/05 00:11:07;;;;;;;2.45;0.85;;;14.30;64.20;;;;;;4884007;29;20059;-81
2023/06/05 00:13:35;;;;;;;1.98;0.63;;;14.30;64.30;;;;;;4868532;29;20494;-81
2023/06/05 00:16:04;;;;;;;3.92;0.75;;;14.30;64.30;;;;;;4884039;29;20408;-81
2023/06/05 00:18:31;;;;;;;4.50;0.90;;;14.20;64.40;;;;;;4883814;29;20171;-81
2023/06/05 00:20:58;;;;;;;1.83;0.70;;;14.20;64.40;;;;;;4853238;29;20052;-81
2023/06/05 00:23:28;;;;;;;2.35;0.80;;;14.20;64.50;;;;;;4899265;29;20057;-81
2023/06/05 00:25:57;;;;;;;2.30;0.70;;;14.10;64.70;;;;;;4880874;29;20045;-81
2023/06/05 00:28:26;;;;;;;2.65;0.80;;;14.10;64.90;;;;;;4914952;29;20409;-81
2023/06/05 00:30:53;;;;;;;1.25;0.60;;;14.10;64.80;;;;;;4883780;29;20064;-81
2023/06/05 00:33:20;;;;;;;2.40;0.70;;;14.10;64.90;;;;;;4850840;29;20525;-81
2023/06/05 00:35:50;;;;;;;2.25;1.10;;;14.00;65.00;;;;;;4865694;29;20056;-81
2023/06/05 00:38:17;;;;;;;2.92;1.13;;;14.00;65.10;;;;;;4855028;29;20044;-81
2023/06/05 00:40:44;;;;;;;2.55;0.88;;;13.90;65.30;;;;;;4865438;29;20045;-87
2023/06/05 00:43:11;;;;;;;3.80;1.38;;;13.90;65.50;;;;;;4865418;29;20044;-87
2023/06/05 00:45:38;;;;;;;1.75;0.80;;;13.80;65.50;;;;;;4868594;29;20120;-87
2023/06/05 00:48:06;;;;;;;3.40;1.10;;;13.80;65.70;;;;;;4884057;29;20362;-88
2023/06/05 00:50:34;;;;;;;3.00;0.90;;;13.80;65.80;;;;;;4882411;29;20044;-81
2023/06/05 00:53:05;;;;;;;1.77;0.93;;;13.80;65.90;;;;;;4883340;29;20375;-81
2023/06/05 00:55:33;;;;;;;1.50;0.85;;;13.70;66.00;;;;;;4883359;29;20048;-81
2023/06/05 00:58:03;;;;;;;2.47;1.30;;;13.70;66.30;;;;;;4879559;29;20049;-81
2023/06/05 01:00:30;;;;;;;3.15;1.48;;;13.60;66.40;;;;;;4892863;29;20490;-81
2023/06/05 01:02:58;;;;;;;1.77;1.17;;;13.60;66.60;;;;;;4852439;29;20044;-81
2023/06/05 01:05:28;;;;;;;3.47;1.17;;;13.60;66.70;;;;;;4882953;29;20051;-81
2023/06/05 01:07:55;;;;;;;2.13;1.00;;;13.50;66.70;;;;;;4867840;29;20063;-81
2023/06/05 01:10:22;;;;;;;2.95;1.40;;;13.50;66.80;;;;;;4882931;29;20051;-81
2023/06/05 01:12:54;;;;;;;3.13;1.00;;;13.50;67.00;;;;;;4867549;29;20406;-81
2023/06/05 01:15:28;;;;;;;4.25;1.20;;;13.50;67.00;;;;;;4882672;29;20049;-81
2023/06/05 01:18:00;;;;;;;2.03;1.05;;;13.50;67.00;;;;;;4882661;29;20076;-81
2023/06/05 01:20:36;;;;;;;4.00;1.20;;;13.40;67.10;;;;;;4882770;29;20052;-81
2023/06/05 01:23:07;;;;;;;2.28;1.25;;;13.40;67.20;;;;;;4898057;29;20040;-81
2023/06/05 01:25:36;;;;;;;3.50;1.20;;;13.40;67.40;;;;;;4898139;29;20052;-81
2023/06/05 01:28:14;;;;;;;3.63;1.30;;;13.30;67.40;;;;;;4882641;29;20405;-81
2023/06/05 01:30:52;;;;;;;2.40;1.15;;;13.30;67.60;;;;;;4876417;29;20053;-81
2023/06/05 01:33:30;;;;;;;3.03;1.55;;;13.30;67.70;;;;;;4897981;29;20055;-80
2023/06/05 01:36:04;;;;;;;3.00;1.40;;;13.20;67.60;;;;;;4898023;29;20064;-80
2023/06/05 01:38:36;;;;;;;3.88;1.30;;;13.20;67.80;;;;;;4882272;29;20505;-80
2023/06/05 01:41:04;;;;;;;3.50;1.23;;;13.20;68.00;;;;;;4879108;29;20387;-81
2023/06/05 01:43:33;;;;;;;3.25;1.50;;;13.10;68.20;;;;;;4882284;29;20045;-80
2023/06/05 01:46:01;;;;;;;2.85;1.40;;;13.10;68.40;;;;;;4867117;29;20079;-80
2023/06/05 01:48:29;;;;;;;3.60;1.40;;;13.10;68.40;;;;;;4897656;29;20041;-80
2023/06/05 01:50:58;;;;;;;3.15;1.73;;;13.00;68.40;;;;;;4867239;29;20048;-81
2023/06/05 01:53:27;;;;;;;3.03;1.15;;;13.00;68.40;;;;;;4882016;29;20101;-80
2023/06/05 01:55:59;;;;;;;3.85;1.63;;;13.00;68.60;;;;;;4897556;29;20048;-81
2023/06/05 01:58:26;;;;;;;;;;;13.00;68.70;;;;;;4882535;29;20455;-80
2023/06/05 02:00:56;;;;;;;3.83;1.58;;;12.90;68.60;;;;;;4882395;29;19923;-80
2023/06/05 02:03:24;;;;;;;4.97;1.42;;;12.80;68.80;;;;;;4897457;29;20417;-80
2023/06/05 02:05:52;;;;;;;2.72;1.17;;;12.80;68.90;;;;;;4882134;29;20466;-80
2023/06/05 02:08:22;;;;;;;2.65;1.50;;;12.80;69.20;;;;;;4850950;29;20409;-80
2023/06/05 02:10:50;;;;;;;4.10;1.92;;;12.80;69.40;;;;;;4882302;29;20060;-80
2023/06/05 02:13:19;;;;;;;3.63;1.70;;;12.70;69.40;;;;;;4882245;29;20079;-81
2023/06/05 02:15:46;;;;;;;3.20;1.75;;;12.70;69.50;;;;;;4866821;29;20052;-80
2023/06/05 02:18:16;;;;;;;4.40;1.55;;;12.70;69.80;;;;;;4858546;29;20064;-80
2023/06/05 02:20:44;;;;;;;3.95;2.25;;;12.70;69.90;;;;;;4897060;29;20111;-80
2023/06/05 02:23:11;;;;;;;4.55;2.13;;;12.60;70.10;;;;;;4881389;29;20044;-80
2023/06/05 02:25:38;;;;;;;3.15;1.83;;;12.50;70.30;;;;;;4850799;29;20398;-80
2023/06/05 02:28:05;;;;;;;4.07;1.90;;;12.50;70.60;;;;;;4850960;29;20052;-81
2023/06/05 02:30:32;;;;;;;4.40;1.67;;;12.50;70.70;;;;;;4881474;29;20056;-81
2023/06/05 02:33:00;;;;;;;3.78;1.80;;;12.50;70.90;;;;;;4881372;29;20079;-81
2023/06/05 02:35:29;;;;;;;5.13;1.98;;;12.40;70.90;;;;;;4851281;29;20048;-81
2023/06/05 02:37:57;;;;;;;4.43;2.55;;;12.40;71.00;;;;;;4881316;29;20051;-81
2023/06/05 02:40:24;;;;;;;3.97;2.45;;;12.40;71.20;;;;;;4881521;29;20041;-81
2023/06/05 02:42:52;;;;;;;4.00;1.90;;;12.30;71.40;;;;;;4881299;29;20648;-80
2023/06/05 02:45:19;;;;;;;4.50;1.52;;;12.30;71.50;;;;;;4896777;29;20056;-81
2023/06/05 02:47:48;;;;;;;3.25;1.48;;;12.30;71.50;;;;;;4881250;29;20143;-81
2023/06/05 02:50:15;;;;;;;2.80;1.52;;;12.30;71.50;;;;;;4896595;29;20160;-81
2023/06/05 02:52:48;;;;;;;;;;;12.30;71.50;;;;;;4882160;29;20079;-81
2023/06/05 02:55:29;;;;;;;3.60;1.88;;;12.20;71.50;;;;;;4868650;29;20288;-81
2023/06/05 02:57:59;;;;;;;2.92;1.65;;;12.20;71.70;;;;;;4881422;29;20049;-80
2023/06/05 03:00:37;;;;;;;3.92;1.88;;;12.10;71.70;;;;;;4879642;29;20105;-81
2023/06/05 03:03:06;;;;;;;3.40;1.65;;;12.10;71.70;;;;;;4881504;29;20041;-81
2023/06/05 03:05:35;;;;;;;4.07;1.88;;;12.10;72.00;;;;;;4877737;29;20057;-81
2023/06/05 03:08:08;;;;;;;5.00;2.55;;;12.10;72.20;;;;;;4870289;29;20052;-81
2023/06/05 03:10:38;;;;;;;5.05;2.00;;;12.10;72.30;;;;;;4880703;29;20064;-80
2023/06/05 03:13:11;;;;;;;3.30;1.83;;;12.10;72.40;;;;;;4851730;29;20089;-81
2023/06/05 03:15:39;;;;;;;4.05;1.80;;;12.00;72.30;;;;;;4881313;29;20124;-81
2023/06/05 03:18:10;;;;;;;3.65;1.70;;;12.00;72.40;;;;;;4864703;29;20453;-80
2023/06/05 03:20:38;;;;;;;4.20;2.22;;;12.00;72.40;;;;;;4849814;29;20041;-81
2023/06/05 03:23:08;;;;;;;3.60;1.95;;;12.00;72.60;;;;;;4881185;29;20041;-81
2023/06/05 03:25:36;;;;;;;5.38;2.38;;;12.00;72.60;;;;;;4851073;29;20477;-87
2023/06/05 03:28:03;;;;;;;5.68;1.95;;;12.00;72.70;;;;;;4881008;29;20115;-87
2023/06/05 03:30:30;;;;;;;3.88;1.92;;;11.90;72.70;;;;;;4881070;29;20087;-87
2023/06/05 03:32:59;;;;;;;3.90;1.83;;;12.00;72.80;;;;;;4875699;29;20144;-87
2023/06/05 03:35:28;;;;;;;4.30;2.20;;;11.90;72.80;;;;;;4863378;29;20476;-87
2023/06/05 03:38:02;;;;;;;5.65;2.42;;;11.90;72.90;;;;;;4867106;29;20784;-87
2023/06/05 03:40:29;;;;;;;4.07;1.95;;;11.90;73.60;;;;;;4881604;29;20131;-86
2023/06/05 03:42:57;;;;;;;3.20;1.73;;;11.90;73.00;;;;;;4880993;29;20145;-87
2023/06/05 03:45:26;;;;;;;4.00;2.20;;;11.90;73.10;;;;;;4850322;29;20450;-87
2023/06/05 03:47:54;;;;;;;4.38;1.88;;;11.80;73.20;;;;;;4881069;29;20116;-86
2023/06/05 03:50:23;;;;;;;4.80;2.13;;;11.90;73.40;;;;;;4881343;29;20072;-86
2023/06/05 03:52:52;;;;;;;5.68;2.10;;;11.80;73.30;;;;;;4863490;29;20471;-87
2023/06/05 03:55:20;;;;;;;4.72;2.28;;;11.80;73.40;;;;;;4847547;29;20132;-87
2023/06/05 03:57:48;;;;;;;3.25;2.10;;;11.80;73.40;;;;;;4880742;29;20131;-87
2023/06/05 04:00:16;;;;;;;4.22;2.25;;;11.90;73.50;;;;;;4881196;29;20049;-86
2023/06/05 04:02:54;;;;;;;3.58;1.92;;;11.90;73.50;;;;;;4854723;29;20072;-86
2023/06/05 04:05:21;;;;;;;5.47;2.28;;;11.80;73.40;;;;;;4865357;29;20056;-86
2023/06/05 04:07:49;;;;;;;3.50;1.83;;;11.90;73.40;;;;;;4877967;29;20528;-87
2023/06/05 04:10:16;;;;;;;5.55;1.83;;;11.90;73.40;;;;;;4878226;29;20198;-86
2023/06/05 04:12:43;;;;;;;4.45;1.88;;;11.90;73.40;;;;;;4850103;29;20497;-87
2023/06/05 04:15:11;;;;;;;3.20;1.50;;;11.90;73.50;;;;;;4865339;29;20049;-86
2023/06/05 04:17:40;;;;;;;4.78;1.85;;;11.90;73.60;;;;;;4851288;29;20047;-87
2023/06/05 04:20:14;;;;;;;4.53;2.03;;;11.90;73.50;;;;;;4850959;29;20053;-87
2023/06/05 04:22:43;;;;;;;4.25;1.92;;;11.90;73.60;;;;;;4881405;29;20040;-86
2023/06/05 04:25:12;;;;;;;4.65;1.73;;;11.90;73.60;;;;;;4896608;29;20053;-87
2023/06/05 04:27:43;;;;;;;2.83;1.50;;;11.90;73.50;;;;;;4880967;29;20059;-87
2023/06/05 04:30:12;;;;;;;3.60;1.83;;;12.00;73.50;;;;;;4896182;29;20124;-86
2023/06/05 04:32:41;;;;;;;2.67;1.45;;;11.90;73.40;;;;;;4882865;29;20428;-85
2023/06/05 04:35:11;;;;;;;4.25;2.25;;;12.00;73.50;;;;;;4869779;29;20059;-84
2023/06/05 04:37:39;;;;;;;5.20;2.67;;;11.90;73.50;;;;;;4884952;29;20132;-84
2023/06/05 04:40:09;;;;;;;4.32;2.35;;;11.90;74.00;;;;;;4880785;29;20418;-84
2023/06/05 04:42:39;;;;;;;4.95;2.40;;;11.80;74.00;;;;;;4883914;29;20526;-87
2023/06/05 04:45:11;;;;;;;4.32;2.25;;;11.80;74.20;;;;;;4899466;29;20064;-87
2023/06/05 04:47:43;;;;;;;4.15;2.15;;;11.90;74.10;;;;;;4899446;29;20049;-87
2023/06/05 04:50:22;;;;;;;4.60;2.00;;;11.90;74.00;;;;;;4853844;29;20104;-87
2023/06/05 04:52:52;;;;;;;4.22;1.67;;;11.90;73.80;;;;;;4869098;29;20106;-87
2023/06/05 04:55:20;;;;;;;4.40;1.77;;;12.00;73.90;;;;;;4862741;29;20419;-87
2023/06/05 04:57:53;;;;;;;3.70;1.80;;;12.00;73.70;;;;;;4856687;29;20127;-87
2023/06/05 05:00:20;;;;;;;6.78;2.22;;;12.10;73.60;;;;;;4883750;29;20045;-87
2023/06/05 05:02:48;;;;;;;4.35;2.25;;;12.10;73.70;;;;;;4898942;29;20044;-87
2023/06/05 05:05:16;;;;;;;3.72;2.15;;;12.10;73.80;;;;;;4883716;29;20614;-86
2023/06/05 05:07:45;;;;;;;4.70;2.33;;;12.10;73.70;;;;;;4883833;29;20048;-87
2023/06/05 05:10:14;;;;;;;3.10;1.70;;;12.20;73.60;;;;;;4883531;29;20056;-87
2023/06/05 05:12:42;;;;;;;3.30;1.92;;;12.20;73.50;;;;;;4899424;29;20136;-88
2023/06/05 05:15:10;;;;;;;3.78;1.98;;;12.30;73.40;;;;;;4883609;29;20052;-81
2023/06/05 05:17:37;;;;;;;4.35;1.98;;;12.30;73.30;;;;;;4883070;29;20561;-81
2023/06/05 05:20:06;;;;;;;4.50;2.33;;;12.40;73.30;;;;;;4882782;29;20040;-81
2023/06/05 05:22:37;;;;;;;4.10;2.40;;;12.40;73.20;;;;;;4883365;29;20041;-81
2023/06/05 05:25:05;;;;;;;3.53;2.10;;;12.40;73.20;;;;;;4869841;29;20433;-81
2023/06/05 05:27:32;;;;;;;4.03;2.35;;;12.50;73.20;;;;;;4852452;29;20049;-81
2023/06/05 05:29:59;;;;;;;4.88;2.45;;;12.60;73.00;;;;;;4879198;29;20081;-81
2023/06/05 05:32:27;;;;;;;5.05;2.47;;;12.60;72.90;;;;;;4859136;29;20053;-81
2023/06/05 05:34:54;;;;;;;4.20;2.28;;;12.70;73.00;;;;;;4864240;29;20044;-81
2023/06/05 05:37:22;;;;;;;4.25;2.60;;;12.70;72.90;;;;;;4897781;29;20057;-81
2023/06/05 05:39:49;;;;;;;5.05;2.67;;;12.80;72.90;;;;;;4882390;29;20068;-81
2023/06/05 05:42:17;;;;;;;5.13;2.45;;;12.90;72.80;;;;;;4882149;29;20051;-81
2023/06/05 05:44:44;;;;;;;4.70;2.47;;;13.00;72.50;;;;;;4898152;29;20124;-80
2023/06/05 05:47:11;;;;;;;9.57;2.25;;;13.10;72.40;;;;;;4866971;29;20048;-81
2023/06/05 05:49:38;;;;;;;5.13;2.50;;;13.20;72.10;;;;;;4851790;29;20048;-81
2023/06/05 05:52:05;;;;;;;3.95;1.90;;;13.30;71.80;;;;;;4851668;29;20131;-81
2023/06/05 05:54:32;;;;;;;4.43;2.33;;;13.40;71.60;;;;;;4879025;29;20041;-82
2023/06/05 05:57:00;;;;;;;4.43;2.15;;;13.50;71.40;;;;;;4878036;29;20044;-81
2023/06/05 05:59:27;;;;;;;5.85;2.60;;;13.50;71.60;;;;;;4897795;29;20052;-88
2023/06/05 06:01:54;;;;;;;4.00;2.20;;;13.60;71.50;;;;;;4867449;29;20045;-87
2023/06/05 06:04:23;;;;;;;3.78;1.83;;;13.60;71.40;;;;;;4868020;29;20056;-87
2023/06/05 06:06:52;;;;;;;3.95;2.40;;;13.70;71.30;;;;;;4898025;29;20459;-86
2023/06/05 06:09:19;;;;;;;5.07;2.60;;;13.70;71.10;;;;;;4897621;29;20061;-87
2023/06/05 06:11:46;;;;;;;4.10;2.00;;;13.80;71.20;;;;;;4852073;29;20147;-87
2023/06/05 06:14:14;;;;;;;6.10;2.70;;;13.80;71.00;;;;;;4866919;29;20081;-86
2023/06/05 06:16:43;;;;;;;3.85;2.20;;;13.90;70.80;;;;;;4866971;29;20143;-87
2023/06/05 06:19:14;;;;;;;3.67;1.95;;;14.00;70.60;;;;;;4897657;29;20108;-88
2023/06/05 06:21:42;;;;;;;5.43;1.88;;;14.20;70.40;;;;;;4882398;29;20059;-87
2023/06/05 06:24:15;;;;;;;4.18;1.90;;;14.30;70.30;;;;;;4882052;29;20143;-85
2023/06/05 06:26:42;;;;;;;3.30;1.63;;;14.30;70.00;;;;;;4881705;29;20055;-85
2023/06/05 06:29:10;;;;;;;4.10;1.60;;;14.40;69.80;;;;;;4881478;29;20143;-85
2023/06/05 06:31:37;;;;;;;3.88;1.55;;;14.50;69.70;;;;;;4851563;29;20048;-84
2023/06/05 06:34:04;;;;;;;3.72;1.60;;;14.60;69.50;;;;;;4866445;29;20048;-86
2023/06/05 06:36:32;;;;;;;4.45;2.28;;;14.70;69.20;;;;;;4851051;29;20040;-86
2023/06/05 06:38:59;;;;;;;7.25;2.60;;;14.80;69.20;;;;;;4866227;29;20036;-86
2023/06/05 06:41:26;;;;;;;3.85;2.22;;;14.90;69.10;;;;;;4853002;29;20052;-84
2023/06/05 06:43:53;;;;;;;5.43;2.92;;;14.90;68.90;;;;;;4867033;29;20045;-84
2023/06/05 06:46:20;;;;;;;5.47;2.42;;;14.90;69.00;;;;;;4882391;29;20156;-86
2023/06/05 06:48:47;;;;;;;4.82;2.70;;;14.90;69.00;;;;;;4848470;29;20048;-85
2023/06/05 06:51:14;;;;;;;4.65;2.20;;;14.90;69.30;;;;;;4851371;29;20045;-86
2023/06/05 06:53:42;;;;;;;4.07;2.20;;;15.00;68.80;;;;;;4878132;29;20417;-86
2023/06/05 06:56:10;;;;;;;6.60;3.20;;;15.10;68.60;;;;;;4862654;29;20055;-86
2023/06/05 06:58:37;;;;;;;3.88;1.80;;;15.20;68.30;;;;;;4858784;29;20498;-87
2023/06/05 07:01:04;;;;;;;3.72;1.90;;;15.30;68.10;;;;;;4866006;29;20144;-86
2023/06/05 07:03:31;;;;;;;4.80;1.88;;;15.40;67.80;;;;;;4866107;29;20455;-86
2023/06/05 07:05:58;;;;;;;4.57;1.80;;;15.50;67.70;;;;;;4866045;29;20044;-87
2023/06/05 07:08:26;;;;;;;4.93;1.50;;;15.60;67.50;;;;;;4877769;29;20056;-91
2023/06/05 07:10:56;;;;;;;3.60;1.58;;;15.70;67.30;;;;;;4879394;29;20085;-88
2023/06/05 07:13:30;;;;;;;3.17;1.80;;;15.80;67.10;;;;;;4883014;29;20075;-87
2023/06/05 07:15:57;;;;;;;3.80;1.73;;;15.90;66.80;;;;;;4881123;29;20612;-86
2023/06/05 07:18:25;;;;;;;2.78;1.60;;;16.00;66.60;;;;;;4850759;29;20066;-88
2023/06/05 07:20:53;;;;;;;3.05;1.17;;;16.10;66.40;;;;;;4851282;29;20486;-85
2023/06/05 07:23:19;;;;;;;3.10;1.75;;;16.10;66.30;;;;;;4880850;29;20041;-85
2023/06/05 07:25:47;;;;;;;3.67;2.10;;;16.20;66.10;;;;;;4850928;29;20052;-85
2023/06/05 07:28:15;;;;;;;2.95;1.20;;;16.20;66.20;;;;;;4896334;29;20476;-87
2023/06/05 07:30:43;;;;;;;5.15;2.13;;;16.30;66.10;;;;;;4867274;29;20410;-86
2023/06/05 07:33:10;;;;;;;3.97;2.08;;;16.30;66.00;;;;;;4865710;29;20405;-86
2023/06/05 07:35:55;;;;;;;3.63;1.83;;;16.30;66.10;;;;;;4890874;29;20526;-87
2023/06/05 07:38:22;;;;;;;3.70;1.80;;;16.30;66.10;;;;;;4875391;29;20045;-86
2023/06/05 07:40:49;;;;;;;4.30;1.73;;;16.40;66.60;;;;;;4862857;29;20241;-86
2023/06/05 07:43:17;;;;;;;4.25;1.90;;;16.50;65.80;;;;;;4865408;29;20040;-86
2023/06/05 07:45:45;;;;;;;4.45;1.70;;;16.50;65.70;;;;;;4896368;29;20048;-86
2023/06/05 07:48:12;;;;;;;5.40;2.20;;;16.50;65.60;;;;;;4865780;29;20556;-86
2023/06/05 07:50:40;;;;;;;4.85;2.42;;;16.60;65.50;;;;;;4865450;29;20373;-86
2023/06/05 07:53:07;;;;;;;4.22;2.10;;;16.70;65.50;;;;;;4881165;29;20060;-86
2023/06/05 07:55:35;;;;;;;3.22;1.58;;;16.70;65.30;;;;;;4865228;29;20059;-85
2023/06/05 07:58:02;;;;;;;3.80;2.00;;;16.80;65.30;;;;;;4895941;29;20108;-85
2023/06/05 08:00:29;;;;;;;3.20;1.75;;;16.90;65.10;;;;;;4877290;29;20044;-85
2023/06/05 08:02:57;;;;;;;4.00;1.77;;;17.10;64.90;;;;;;4872800;29;20048;-86
2023/06/05 08:05:24;;;;;;;4.50;1.55;;;17.20;64.50;;;;;;4865578;29;20136;-87
2023/06/05 08:07:51;;;;;;;4.88;1.70;;;17.30;64.30;;;;;;4882833;29;20045;-85
2023/06/05 08:10:18;;;;;;;3.85;1.60;;;17.50;64.10;;;;;;4884113;29;20509;-86
2023/06/05 08:12:45;;;;;;;3.90;1.23;;;17.70;63.80;;;;;;4899926;29;20044;-86
2023/06/05 08:15:13;;;;;;;3.42;1.55;;;17.80;63.50;;;;;;4884384;29;20048;-86
2023/06/05 08:17:40;;;;;;;3.05;1.38;;;17.90;63.30;;;;;;4866921;29;20056;-86
2023/06/05 08:20:10;;;;;;;3.67;1.85;;;18.00;63.20;;;;;;4880778;29;20479;-87
2023/06/05 08:22:40;;;;;;;3.22;1.25;;;18.10;63.20;;;;;;4851064;29;20053;-86
2023/06/05 08:25:07;;;;;;;3.38;1.55;;;18.10;63.10;;;;;;4853802;29;20455;-87
2023/06/05 08:27:35;;;;;;;3.92;1.70;;;18.20;63.00;;;;;;4850748;29;20057;-88
2023/06/05 08:30:03;;;;;;;3.55;1.17;;;18.20;62.90;;;;;;4884023;29;20502;-87
2023/06/05 08:32:30;;;;;;;3.40;1.70;;;18.30;62.90;;;;;;4853443;29;20056;-87
2023/06/05 08:34:57;;;;;;;5.03;2.60;;;18.40;62.70;;;;;;4899311;29;20088;-86
2023/06/05 08:37:25;;;;;;;4.03;1.98;;;18.40;62.50;;;;;;4883714;29;20106;-86
2023/06/05 08:39:52;;;;;;;3.78;1.98;;;18.40;62.70;;;;;;4883598;29;20569;-85
2023/06/05 08:42:20;;;;;;;3.72;1.42;;;18.40;62.60;;;;;;4868454;29;20486;-82
2023/06/05 08:44:48;;;;;;;3.67;1.48;;;18.50;62.40;;;;;;4883900;29;20480;-83
2023/06/05 08:47:32;;;;;;;3.03;1.23;;;18.60;62.20;;;;;;4888692;29;20064;-86
2023/06/05 08:50:05;;;;;;;4.43;1.75;;;18.70;62.10;;;;;;4888080;29;20104;-88
2023/06/05 08:52:37;;;;;;;2.45;1.45;;;18.90;61.80;;;;;;4884374;29;20502;-90
2023/06/05 08:55:05;;;;;;;4.28;1.73;;;19.00;61.50;;;;;;4899550;29;20084;-88
2023/06/05 08:57:38;;;;;;;3.03;1.70;;;19.00;61.40;;;;;;4864102;29;20053;-87
2023/06/05 09:00:10;;;;;;;3.30;1.48;;;19.10;61.40;;;;;;4883833;29;20464;-86
2023/06/05 09:02:43;;;;;;;4.05;1.42;;;19.20;61.20;;;;;;4898986;29;20045;-84
2023/06/05 09:05:12;;;;;;;1.73;1.00;;;19.30;60.90;;;;;;4883437;29;20052;-86
2023/06/05 09:07:40;;;;;;;2.90;1.63;;;19.50;61.50;;;;;;4898921;29;20080;-86
2023/06/05 09:10:25;;;;;;;2.95;1.60;;;19.50;60.60;;;;;;4898486;29;20060;-85
2023/06/05 09:13:03;;;;;;;4.40;1.35;;;19.60;60.50;;;;;;4898206;29;20501;-85
2023/06/05 09:15:33;;;;;;;2.72;1.48;;;19.70;60.40;;;;;;4879952;29;20083;-87
2023/06/05 09:18:12;;;;;;;2.20;1.10;;;19.80;60.30;;;;;;4880279;29;20094;-89
2023/06/05 09:20:42;;;;;;;3.60;1.48;;;19.90;60.20;;;;;;4890784;29;20053;-84
2023/06/05 09:23:28;;;;;;;2.70;1.40;;;19.90;60.00;;;;;;4882891;29;20408;-83
2023/06/05 09:26:01;;;;;;;3.53;1.08;;;20.10;59.90;;;;;;4898142;29;20058;-84
2023/06/05 09:28:30;;;;;;;6.25;1.55;;;20.20;59.70;;;;;;4898493;29;20053;-85
2023/06/05 09:31:03;;;;;;;3.28;1.50;;;20.40;59.40;;;;;;4882675;29;20135;-85
2023/06/05 09:33:35;;;;;;;3.17;1.55;;;20.50;59.20;;;;;;4898147;29;20104;-83
2023/06/05 09:36:13;;;;;;;4.38;1.70;;;20.50;59.10;;;;;;4882390;29;20100;-85
2023/06/05 09:38:41;;;;;;;4.07;1.98;;;20.50;59.10;;;;;;4898166;29;20124;-86
2023/06/05 09:41:15;;;;;;;3.05;1.55;;;20.50;59.00;;;;;;4898458;29;20056;-83
2023/06/05 09:43:42;;;;;;;3.35;1.60;;;20.50;58.90;;;;;;4882947;29;20056;-87
2023/06/05 09:46:11;;;;;;;5.07;1.25;;;20.60;58.90;;;;;;4868212;29;20056;-89
2023/06/05 09:48:50;;;;;;;3.13;1.10;;;20.80;58.70;;;;;;4883537;29;20044;-87
2023/06/05 09:51:18;;;;;;;4.35;1.40;;;21.00;58.40;;;;;;4897990;29;20052;-86
2023/06/05 09:53:49;;;;;;;6.10;2.15;;;21.00;58.20;;;;;;4882942;29;20052;-89
2023/06/05 09:56:19;;;;;;;2.38;1.23;;;21.10;58.00;;;;;;4898352;29;20040;-87
2023/06/05 09:58:51;;;;;;;3.33;1.20;;;21.00;58.10;;;;;;4898138;29;20458;-87
2023/06/05 10:01:22;;;;;;;2.28;1.23;;;21.10;58.00;;;;;;4899246;29;20379;-87
2023/06/05 10:04:03;;;;;;;3.00;1.58;;;21.20;57.90;;;;;;4898420;29;20051;-88
2023/06/05 10:06:33;;;;;;;3.00;1.60;;;21.20;57.70;;;;;;4887340;29;20052;-85
2023/06/05 10:09:01;;;;;;;3.65;1.60;;;21.30;57.70;;;;;;4881846;29;20147;-86
2023/06/05 10:11:28;;;;;;;3.67;1.52;;;21.30;57.60;;;;;;4882005;29;20084;-85
2023/06/05 10:13:59;;;;;;;3.47;1.48;;;21.40;57.50;;;;;;4898684;29;20049;-85
2023/06/05 10:16:28;;;;;;;3.83;1.42;;;21.40;57.40;;;;;;4897266;29;20545;-85
2023/06/05 10:18:56;;;;;;;3.03;1.52;;;21.60;57.30;;;;;;4897388;29;20059;-85
2023/06/05 10:21:25;;;;;;;3.17;1.58;;;21.60;57.00;;;;;;4882142;29;20041;-85
2023/06/05 10:24:03;;;;;;;2.85;1.63;;;21.70;56.90;;;;;;4897746;29;20431;-87
2023/06/05 10:26:33;;;;;;;2.83;1.33;;;21.70;56.70;;;;;;4897286;29;20048;-89
2023/06/05 10:29:38;;;;;;;2.33;1.20;;;21.70;56.80;;;;;;4897043;29;20569;-86
2023/06/05 10:32:28;;;;;;;2.45;1.10;;;21.80;56.70;;;;;;4892891;29;20177;-88
2023/06/05 10:35:04;;;;;;;3.70;2.05;;;21.90;56.50;;;;;;4882151;29;20052;-89
2023/06/05 10:37:38;;;;;;;5.22;1.95;;;22.00;56.10;;;;;;4898289;29;20470;-88
2023/06/05 10:40:07;;;;;;;2.08;1.00;;;22.00;56.20;;;;;;4882634;29;20053;-88
2023/06/05 10:42:36;;;;;;;4.60;1.52;;;22.10;56.00;;;;;;4882266;29;20059;-87
2023/06/05 10:45:04;;;;;;;2.67;1.40;;;22.20;56.40;;;;;;4882493;29;20104;-88
2023/06/05 10:47:37;;;;;;;3.58;1.40;;;22.30;55.60;;;;;;4881794;29;20045;-84
2023/06/05 10:50:19;;;;;;;2.83;1.10;;;22.30;55.50;;;;;;4886602;29;20052;-86
2023/06/05 10:52:48;;;;;;;3.13;1.45;;;22.40;55.20;;;;;;4890602;29;20056;-85
2023/06/05 10:55:17;;;;;;;2.40;1.27;;;22.50;55.10;;;;;;4882102;29;20063;-89
2023/06/05 10:58:13;;;;;;;2.95;1.33;;;22.60;55.00;;;;;;4865845;29;20064;-89
2023/06/05 11:01:17;;;;;;;2.85;1.10;;;22.60;54.70;;;;;;4897474;29;20041;-87
2023/06/05 11:03:56;;;;;;;2.20;1.00;;;22.70;54.70;;;;;;4897398;29;20135;-87
2023/06/05 11:06:23;;;;;;;2.70;1.10;;;22.80;54.60;;;;;;4897829;29;20152;-88
2023/06/05 11:09:10;;;;;;;2.15;0.82;;;22.90;54.40;;;;;;4897542;29;20567;-88
2023/06/05 11:12:02;;;;;;;1.65;0.90;;;23.00;54.10;;;;;;4859401;29;20049;-90
2023/06/05 11:14:55;;;;;;;4.43;1.02;;;23.10;54.00;;;;;;4881767;29;20072;-87
2023/06/05 11:17:30;;;;;;;1.90;0.80;;;23.10;53.80;;;;;;4896344;29;20581;-88
2023/06/05 11:20:12;;;;;;;2.10;1.00;;;23.20;53.70;;;;;;4894441;29;20484;-87
2023/06/05 11:22:57;;;;;;;2.15;1.02;;;23.20;53.60;;;;;;4881209;29;20071;-87
2023/06/05 11:25:26;;;;;;;4.40;0.80;;;23.30;53.40;;;;;;4889699;29;20140;-89
2023/06/05 11:27:56;;;;;;;3.15;1.10;;;23.40;53.20;;;;;;4881925;29;20412;-87
2023/06/05 11:30:28;;;;;;;1.52;0.80;;;23.50;53.00;;;;;;4896650;29;20095;-85
2023/06/05 11:33:19;;;;;;;2.70;0.80;;;23.60;52.90;;;;;;4896594;29;20076;-86
2023/06/05 11:35:52;;;;;;;1.75;0.85;;;23.60;52.80;;;;;;4896306;29;20056;-86
2023/06/05 11:38:24;;;;;;;2.65;1.00;;;23.70;52.70;;;;;;4881059;29;20398;-89
2023/06/05 11:41:05;;;;;;;;;;;23.70;52.40;;;;;;4900269;29;20045;-90
2023/06/05 11:43:43;;;;;;;2.30;1.10;;;23.80;52.40;;;;;;4900704;29;20394;-90
2023/06/05 11:46:11;;;;;;;2.05;0.80;;;24.00;52.00;;;;;;4869930;29;20049;-85
2023/06/05 11:48:45;;;;;;;1.20;0.60;;;24.10;51.80;;;;;;4882285;29;20037;-87
2023/06/05 11:51:15;;;;;;;1.55;0.73;;;24.40;51.50;;;;;;4881721;29;20060;-88
2023/06/05 11:53:49;;;;;;;1.33;0.70;;;24.60;51.20;;;;;;4870954;29;20501;-89
2023/06/05 11:56:27;;;;;;;2.28;1.00;;;24.80;50.50;;;;;;4894766;29;20139;-87
2023/06/05 11:59:01;;;;;;;1.77;0.93;;;25.00;50.30;;;;;;4900495;29;20100;-93
2023/06/05 12:01:36;;;;;;;1.70;0.80;;;25.20;50.20;;;;;;4901566;29;20048;-90
2023/06/05 12:04:07;;;;;;;1.67;0.88;;;25.50;49.70;;;;;;4885924;29;20053;-89
2023/06/05 12:06:43;;;;;;;1.55;0.70;;;25.70;49.10;;;;;;4900168;29;20494;-90
2023/06/05 12:09:21;;;;;;;2.30;0.68;;;25.90;48.80;;;;;;4884806;29;20057;-87
2023/06/05 12:11:48;;;;;;;3.05;1.48;;;26.10;48.70;;;;;;4885043;29;20140;-93
2023/06/05 12:14:32;;;;;;;1.67;0.90;;;26.30;48.20;;;;;;4901223;29;20048;-90
2023/06/05 12:17:00;;;;;;;1.83;0.70;;;26.50;48.00;;;;;;4884761;29;20109;-87
2023/06/05 12:19:30;;;;;;;1.17;0.60;;;26.70;47.70;;;;;;4885515;29;20489;-94
2023/06/05 12:22:05;;;;;;;2.53;0.80;;;27.20;47.30;;;;;;4901228;29;20083;-94
2023/06/05 12:24:37;;;;;;;2.53;0.98;;;27.70;46.70;;;;;;4900962;29;20495;-90
2023/06/05 12:27:05;;;;;;;1.63;0.60;;;27.90;46.20;;;;;;4884929;29;20104;-84
2023/06/05 12:29:38;;;;;;;2.38;0.93;;;27.90;46.10;;;;;;4884818;29;20045;-92
2023/06/05 12:32:26;;;;;;;4.45;0.80;;;28.00;45.80;;;;;;4899390;29;20128;-91
2023/06/05 12:34:56;;;;;;;1.30;0.77;;;28.10;45.70;;;;;;4899296;29;20063;-85
2023/06/05 12:37:47;;;;;;;1.73;0.93;;;28.20;45.40;;;;;;4899414;29;20052;-89
2023/06/05 12:40:20;;;;;;;1.70;0.60;;;28.50;45.00;;;;;;4900681;29;20127;-90
2023/06/05 12:43:02;;;;;;;1.40;0.80;;;28.60;45.00;;;;;;4887013;29;20059;-86
2023/06/05 12:45:43;;;;;;;2.03;0.80;;;28.90;44.70;;;;;;4855502;29;20104;-94
2023/06/05 12:48:40;;;;;;;2.30;0.80;;;29.10;44.30;;;;;;4902733;29;20095;-93
2023/06/05 12:51:08;;;;;;;1.15;0.75;;;29.40;44.00;;;;;;4891303;29;20158;-90
2023/06/05 12:56:45;;;;;;;1.35;0.60;;;30.00;43.40;;;;;;5023117;23;20174;-93
2023/06/05 12:59:27;;;;;;;0.90;0.50;;;30.20;43.10;;;;;;4943996;29;20044;-90
2023/06/05 13:01:58;;;;;;;1.80;0.80;;;30.30;42.90;;;;;;4911022;29;20047;-89
2023/06/05 13:04:37;;;;;;;1.95;0.73;;;30.20;42.60;;;;;;4924406;29;20047;-91
2023/06/05 13:07:14;;;;;;;1.02;0.40;;;30.40;42.30;;;;;;4920838;29;20058;-95
2023/06/05 13:09:42;;;;;;;0.95;0.57;;;30.80;42.10;;;;;;4908798;29;20044;-93